CFN8 weather

Fort Nelson (Guardian) Heliport
Fort Nelson, British Columbia, Canada

Public forecast

Using degrees Celsius for public forecast. Weather courtesy of forecast.io.

Closest aviation weather report (METAR) to Fort Nelson (Guardian) Heliport

Closest report is Fort Nelson Airport, 5.8 nm (10.7 km) NNE. Retrieved 2019/10/17 16:13 UTC (17 minutes ago):

CYYE 171613Z 15002KT 1/4SM FZFG VV003 M00/M00 A2925 RMK FG8 SLP924

Closest aviation forecast (TAF) to Fort Nelson (Guardian) Heliport

Closest forecast is Fort Nelson Airport, 5.8 nm (10.7 km) NNE. Retrieved 2019/10/17 13:42 UTC (3 hours ago):

TAF CYYE 171238Z 1713/1801 30006KT 6SM -SN OVC015 TEMPO 1713/1715 2SM -SN BR OVC007 FM171500 26005KT 5SM -SN OVC020 TEMPO 1715/1719 P6SM NSW OVC030 FM171900 30005KT P6SM BKN040 RMK NXT FCST BY 171900Z